Map

Track Data

SID SEASON NUMBER BASIN SUBBASIN NAME ISO_TIME NATURE LAT LON WMO_WIND WMO_PRES WMO_AGENCY TRACK_TYPE DIST2LAND LANDFALL IFLAG USA_AGENCY USA_ATCF_ID USA_LAT USA_LON USA_RECORD USA_STATUS USA_WIND USA_PRES USA_SSHS USA_R34_NE USA_R34_SE USA_R34_SW USA_R34_NW USA_R50_NE USA_R50_SE USA_R50_SW USA_R50_NW USA_R64_NE USA_R64_SE USA_R64_SW USA_R64_NW USA_POCI USA_ROCI USA_RMW USA_EYE TOKYO_LAT TOKYO_LON TOKYO_GRADE TOKYO_WIND TOKYO_PRES TOKYO_R50_DIR TOKYO_R50_LONG TOKYO_R50_SHORT TOKYO_R30_DIR TOKYO_R30_LONG TOKYO_R30_SHORT TOKYO_LAND CMA_LAT CMA_LON CMA_CAT CMA_WIND CMA_PRES HKO_LAT HKO_LON HKO_CAT HKO_WIND HKO_PRES NEWDELHI_LAT NEWDELHI_LON NEWDELHI_GRADE NEWDELHI_WIND NEWDELHI_PRES NEWDELHI_CI NEWDELHI_DP NEWDELHI_POCI REUNION_LAT REUNION_LON REUNION_TYPE REUNION_WIND REUNION_PRES REUNION_TNUM REUNION_CI REUNION_RMW REUNION_R34_NE REUNION_R34_SE REUNION_R34_SW REUNION_R34_NW REUNION_R50_NE REUNION_R50_SE REUNION_R50_SW REUNION_R50_NW REUNION_R64_NE REUNION_R64_SE REUNION_R64_SW REUNION_R64_NW BOM_LAT BOM_LON BOM_TYPE BOM_WIND BOM_PRES BOM_TNUM BOM_CI BOM_RMW BOM_R34_NE BOM_R34_SE BOM_R34_SW BOM_R34_NW BOM_R50_NE BOM_R50_SE BOM_R50_SW BOM_R50_NW BOM_R64_NE BOM_R64_SE BOM_R64_SW BOM_R64_NW BOM_ROCI BOM_POCI BOM_EYE BOM_POS_METHOD BOM_PRES_METHOD NADI_LAT NADI_LON NADI_CAT NADI_WIND NADI_PRES WELLINGTON_LAT WELLINGTON_LON WELLINGTON_WIND WELLINGTON_PRES DS824_LAT DS824_LON DS824_STAGE DS824_WIND DS824_PRES TD9636_LAT TD9636_LON TD9636_STAGE TD9636_WIND TD9636_PRES TD9635_LAT TD9635_LON TD9635_WIND TD9635_PRES TD9635_ROCI NEUMANN_LAT NEUMANN_LON NEUMANN_CLASS NEUMANN_WIND NEUMANN_PRES MLC_LAT MLC_LON MLC_CLASS MLC_WIND MLC_PRES USA_GUST BOM_GUST BOM_GUST_PER REUNION_GUST REUNION_GUST_PER USA_SEAHGT USA_SEARAD_NE USA_SEARAD_SE USA_SEARAD_SW USA_SEARAD_NW STORM_SPEED STORM_DIR
1984035S09101 1984 10 SI WA ANNETTE:JAMINY 1984-02-03 12:00:00 NR -9.40000 101.100 25 1002 bom main 537 537 ______O___O___ -1 -9.40000 101.100 20 25 1002 1.50000 -9.40000 101.100 1 27 6 262
1984035S09101 1984 10 SI WA ANNETTE:JAMINY 1984-02-03 15:00:00 NR -9.44306 100.775 main 565 565 ______P___P___ -1 -9.44997 100.840 20 25 1002 -9.43615 100.709 1 27 7 263
1984035S09101 1984 10 SI WA ANNETTE:JAMINY 1984-02-03 18:00:00 NR -9.48884 100.407 25 1002 bom main 609 609 ______O___P___ -1 -9.50000 100.500 20 25 1002 1.50000 -9.47767 100.315 1 27 8 263
1984035S09101 1984 10 SI WA ANNETTE:JAMINY 1984-02-03 21:00:00 NR -9.54020 99.9715 main 640 640 ______P___P___ -1 -9.55004 100.030 20 25 1001 -9.53037 99.9130 1 27 9 263
1984035S09101 1984 10 SI WA ANNETTE:JAMINY 1984-02-04 00:00:00 NR -9.60000 99.5000 25 1000 bom main 682 682 ______O___O___ -1 -9.60000 99.5000 20 25 1000 2.00000 -9.60000 99.5000 1 27 9 263
1984035S09101 1984 10 SI WA ANNETTE:JAMINY 1984-02-04 03:00:00 NR -9.65945 99.0199 main 724 724 ______P___P___ -1 -9.62756 98.9624 20 25 999 -9.69134 99.0773 1 28 9 260
1984035S09101 1984 10 SI WA ANNETTE:JAMINY 1984-02-04 06:00:00 NR -9.75258 98.5838 25 999 bom main 760 760 ______O___P___ -1 -9.70000 98.5000 20 25 999 2.00000 -9.80516 98.6677 1 29 8 252
1984035S09101 1984 10 SI WA ANNETTE:JAMINY 1984-02-04 09:00:00 NR -9.90939 98.2484 main 796 796 ______P___P___ -1 -9.87740 98.1975 20 25 999 -9.94138 98.2992 1 30 7 239
1984035S09101 1984 10 SI WA ANNETTE:JAMINY 1984-02-04 12:00:00 NR -10.1000 98.0000 25 999 bom main 828 828 ______O___O___ -1 -10.1000 98.0000 20 25 999 2.00000 -10.1000 98.0000 1 32 6 228
1984035S09101 1984 10 SI WA ANNETTE:JAMINY 1984-02-04 15:00:00 NR -10.2809 97.8253 main 859 859 ______P___P___ -1 -10.3000 97.8275 20 25 999 -10.2619 97.8231 1 32 5 218
1984035S09101 1984 10 SI WA ANNETTE:JAMINY 1984-02-04 18:00:00 NR -10.4735 97.7060 25 999 bom main 883 883 ______O___P___ -1 -10.5000 97.7000 20 25 999 2.00000 -10.4471 97.7120 1 32 5 208
1984035S09101 1984 10 SI WA ANNETTE:JAMINY 1984-02-04 21:00:00 NR -10.6794 97.6099 main 907 907 ______P___P___ -1 -10.7000 97.6000 20 25 999 -10.6588 97.6199 1 32 5 205
1984035S09101 1984 10 SI WA ANNETTE:JAMINY 1984-02-05 00:00:00 NR -10.9000 97.5000 25 999 bom main 931 931 ______O___O___ -1 -10.9000 97.5000 20 25 999 2.00000 -10.9000 97.5000 1 32 5 210
1984035S09101 1984 10 SI WA ANNETTE:JAMINY 1984-02-05 03:00:00 NR -11.1334 97.3489 main 963 963 ______P___P___ -1 -11.0795 97.3874 20 27 998 -11.1874 97.3103 1 33 6 216
1984035S09101 1984 10 SI WA ANNETTE:JAMINY 1984-02-05 06:00:00 NR -11.3666 97.1478 30 998 bom main 1002 1002 ______O___P___ -1 -11.3000 97.2000 20 30 998 2.50000 -11.4998 97.0825 1 35 7 220
1984035S09101 1984 10 SI WA ANNETTE:JAMINY 1984-02-05 09:00:00 NR -11.6781 96.8848 30 996 bom main 1042 1042 ______O___P___ -1 -11.6000 96.9000 20 30 996 2.50000 -11.8123 96.8134 1 36 9 218
1984035S09101 1984 10 SI WA ANNETTE:JAMINY 1984-02-05 12:00:00 NR -12.0823 96.5777 35 994 bom main 1097 1097 ______O___O___ -1 -12.1000 96.5000 30 35 994 3.00000 -12.1000 96.5000 2 38 9 220
1984035S09101 1984 10 SI WA ANNETTE:JAMINY 1984-02-05 15:00:00 NR -12.3872 96.2730 main 1144 1144 ______P___P___ -1 -12.3612 96.1532 30 35 994 -12.2885 96.1103 2 40 9 228
1984035S09101 1984 10 SI WA ANNETTE:JAMINY 1984-02-05 18:00:00 NR -12.6519 95.9282 35 994 bom main 1198 1198 ______O___P___ -1 -12.5000 95.8000 30 35 994 3.00000 -12.4556 95.6845 2 43 9 232
1984035S09101 1984 10 SI WA ANNETTE:JAMINY 1984-02-05 21:00:00 NR -12.9401 95.5359 main 1243 1243 ______P___P___ -1 -12.6776 95.3275 30 40 992 -12.6448 95.2666 2 46 10 231
1984035S09101 1984 10 SI WA ANNETTE:JAMINY 1984-02-06 00:00:00 NR -13.2608 95.1693 45 990 bom main 1298 1298 ______O___O___ -1 -12.9000 94.9000 30 45 990 3.00000 -12.9000 94.9000 2 49 9 221
1984035S09101 1984 10 SI WA ANNETTE:JAMINY 1984-02-06 03:00:00 NR -13.6431 94.9104 main 1345 1345 ______P___P___ -1 -13.1974 94.6623 30 45 990 -13.3060 94.6706 2 50 9 210
1984035S09101 1984 10 SI WA ANNETTE:JAMINY 1984-02-06 06:00:00 NR -14.0589 94.6973 45 990 bom main 1401 1401 ______O___P___ -1 -13.6000 94.5000 30 45 990 3.00000 -13.7767 94.4920 2 51 10 206
1984035S09101 1984 10 SI WA ANNETTE:JAMINY 1984-02-06 09:00:00 NR -14.4949 94.4905 main 1449 1449 ______P___P___ -1 -14.1499 94.3150 30 47 987 -14.2591 94.3174 2 52 9 207
1984035S09101 1984 10 SI WA ANNETTE:JAMINY 1984-02-06 12:00:00 NR -14.8941 94.2639 50 985 bom main 1496 1496 ______O___O___ -1 -14.7000 94.1000 30 50 985 3.50000 -14.7000 94.1000 2 54 9 214
1984035S09101 1984 10 SI WA ANNETTE:JAMINY 1984-02-06 15:00:00 NR -15.2038 94.0020 main 1542 1542 ______P___P___ -1 -15.1024 93.8374 30 50 985 -15.0613 93.8200 2 55 8 224
1984035S09101 1984 10 SI WA ANNETTE:JAMINY 1984-02-06 18:00:00 NR -15.4564 93.6950 50 985 bom main 1588 1588 ______O___P___ -1 -15.4000 93.5000 30 50 985 3.50000 -15.3691 93.4851 2 56 8 233
1984035S09101 1984 10 SI WA ANNETTE:JAMINY 1984-02-06 21:00:00 NR -15.6777 93.3473 main 1635 1635 ______P___P___ -1 -15.6299 93.0949 30 52 983 -15.6173 93.0826 2 57 8 241
1984035S09101 1984 10 SI WA ANNETTE:JAMINY 1984-02-07 00:00:00 NR -15.8548 92.9390 55 982 bom main 1680 1680 ______O___O___ -1 -15.8000 92.6000 30 55 982 4.00000 -15.8000 92.6000 2 59 9 249
1984035S09101 1984 10 SI WA ANNETTE:JAMINY 1984-02-07 03:00:00 NR -16.0089 92.4565 main 1717 1717 ______P___P___ -1 -15.9874 92.0377 30 55 981 -15.9035 91.9958 2 59 10 255
1984035S09101 1984 10 SI WA ANNETTE:JAMINY 1984-02-07 06:00:00 NR -16.1155 91.9071 55 980 bom main 1769 1769 ______O___P___ -1 -16.1000 91.4000 30 55 980 4.00000 -15.9465 91.3213 2 59 11 262
1984035S09101 1984 10 SI WA ANNETTE:JAMINY 1984-02-07 09:00:00 NR -16.1682 91.3014 main 1820 1820 ______P___P___ -1 -16.0652 90.6771 30 55 980 -15.9660 90.6363 2 59 12 265
1984035S09101 1984 10 SI WA ANNETTE:JAMINY 1984-02-07 12:00:00 NR -16.2125 90.7084 55 980 bom main 1856 1856 ______O___O___ -1 -16.0000 90.0000 30 55 980 4.00000 -16.0000 90.0000 2 59 11 263
1984035S09101 1984 10 SI WA ANNETTE:JAMINY 1984-02-07 15:00:00 NR -16.3074 90.1929 main 1892 1892 ______P___P___ -1 -16.0121 89.5125 30 57 979 -16.1274 89.4443 2 59 10 257
1984035S09101 1984 10 SI MM ANNETTE:JAMINY 1984-02-07 18:00:00 NR -16.4240 89.7169 60 978 bom main 1930 1930 ______O___P___ -1 -16.1000 89.1000 30 60 978 4.00000 -16.2721 88.9508 2 59 10 254
1984035S09101 1984 10 SI MM ANNETTE:JAMINY 1984-02-07 21:00:00 NR -16.5684 89.2300 main 1978 1978 ______P___P___ -1 -16.3001 88.6053 30 60 979 -16.4057 88.5318 2 59 9 253
1984035S09101 1984 10 SI MM ANNETTE:JAMINY 1984-02-08 00:00:00 NR -16.6894 88.7992 60 980 bom main 2011 2011 ______O___O___ -1 -16.5000 88.2000 30 60 980 4.00000 -16.5000 88.2000 2 59 7 255
1984035S09101 1984 10 SI MM ANNETTE:JAMINY 1984-02-08 03:00:00 NR -16.7559 88.4790 main 2038 2038 ______P___P___ -1 -16.5948 88.0049 30 60 979 -16.5703 87.9636 2 60 5 262
1984035S09101 1984 10 SI MM ANNETTE:JAMINY 1984-02-08 06:00:00 NR -16.7639 88.2367 60 978 bom main 2057 2054 ______O___P___ -1 -16.6000 87.9000 30 60 978 4.00000 -16.5918 87.8100 2 62 4 273
1984035S09101 1984 10 SI MM ANNETTE:JAMINY 1984-02-08 09:00:00 NR -16.7302 88.0221 main 2060 2055 ______P___P___ -1 -16.5675 87.7501 30 62 976 -16.5424 87.7014 2 63 5 298
1984035S09101 1984 10 SI MM ANNETTE:JAMINY 1984-02-08 12:00:00 TS -16.5355 87.7843 65 975 bom main 2055 2051 O_____O___O_O_ jtwc_sh SH211984 -16.1000 87.5000 40 0 -16.4000 87.6000 40 65 975 4.50000 -16.4000 87.6000 4 65 -16.1000 87.5000 TC 40 7 317
1984035S09101 1984 10 SI MM ANNETTE:JAMINY 1984-02-08 15:00:00 TS -16.2500 87.5552 main 2051 2038 P_____P___P_P_ SH211984 -15.9525 87.3224 42 0 -16.0300 87.4499 40 67 974 -16.0866 87.4209 4 67 -15.9525 87.3224 TC 42 7 325
1984035S09101 1984 10 SI MM ANNETTE:JAMINY 1984-02-08 18:00:00 TS -15.9539 87.3659 70 973 bom main 2038 2026 O_____O___P_O_ jtwc_sh SH211984 -15.8000 87.2000 45 0 -15.6000 87.3000 40 70 973 4.50000 -15.6926 87.2466 4 70 -15.8000 87.2000 TC 45 6 330
1984035S09101 1984 10 SI MM ANNETTE:JAMINY 1984-02-08 21:00:00 TS -15.6917 87.2232 main 2026 2009 P_____P___P_P_ SH211984 -15.6425 87.1700 47 0 -15.2475 87.1124 40 72 971 -15.3022 87.0991 4 73 -15.6425 87.1700 TC 47 5 336
1984035S09101 1984 10 SI MM ANNETTE:JAMINY 1984-02-09 00:00:00 TS -15.4830 87.1535 75 970 bom main 2009 2008 O_____O___O_O_ jtwc_sh SH211984 -15.5000 87.2000 50 0 -15.0000 87.0000 40 75 970 4.50000 -15.0000 87.0000 4 76 -15.5000 87.2000 TC 50 3 347
1984035S09101 1984 10 SI MM ANNETTE:JAMINY 1984-02-09 03:00:00 TS -15.3648 87.1428 main 2008 1992 P_____P___P_P_ SH211984 -15.4000 87.2275 52 0 -14.8975 87.0851 40 77 967 -14.9277 86.9627 4 77 -15.4000 87.2275 TC 52 2 3
1984035S09101 1984 10 SI MM ANNETTE:JAMINY 1984-02-09 06:00:00 TS -15.2895 87.1750 80 965 bom main 1992 1984 O_____O___P_O_ jtwc_sh SH211984 -15.3000 87.3000 55 0 -14.9000 87.2000 40 80 965 5.00000 -14.9474 86.9752 4 78 -15.3000 87.3000 TC 55 2 27
1984035S09101 1984 10 SI MM ANNETTE:JAMINY 1984-02-09 09:00:00 TS -15.2237 87.2183 main 1984 1968 P_____P___P_P_ SH211984 -15.1500 87.4350 57 0 -14.9800 87.1725 40 80 965 -14.9934 87.0250 4 79 -15.1500 87.4350 TC 57 2 34
1984035S09101 1984 10 SI MM ANNETTE:JAMINY 1984-02-09 12:00:00 TS -15.1425 87.2780 80 965 bom main 1968 1960 O_____O___O_O_ jtwc_sh SH211984 -15.0000 87.6000 60 0 -15.0000 87.1000 40 80 965 5.00000 -15.0000 87.1000 4 81 -15.0000 87.6000 TC 60 2 24
1984035S09101 1984 10 SI MM ANNETTE:JAMINY 1984-02-09 15:00:00 TS -15.0043 87.3212 main 1960 1944 P_____P___P_P_ SH211984 -14.9000 87.7424 60 0 -14.7725 87.0049 40 80 965 -14.8507 87.1297 4 82 -14.9000 87.7424 TC 60 3 22
1984035S09101 1984 10 SI MM ANNETTE:JAMINY 1984-02-09 18:00:00 TS -14.8514 87.3975 80 965 bom main 1944 1921 O_____O___P_O_ jtwc_sh SH211984 -14.8000 87.9000 60 0 -14.5000 87.0000 40 80 965 5.00000 -14.6570 87.1876 4 83 -14.8000 87.9000 TC 60 4 32
1984035S09101 1984 10 SI MM ANNETTE:JAMINY 1984-02-09 21:00:00 TS -14.7000 87.5186 main 1921 1898 P_____P___P_P_ SH211984 -14.6350 88.0851 60 0 -14.3474 87.1677 40 80 963 -14.4599 87.3017 4 84 -14.6350 88.0851 TC 60 4 49
1984035S09101 1984 10 SI MM ANNETTE:JAMINY 1984-02-10 00:00:00 TS -14.5914 87.7059 80 962 bom main 1898 1877 O_____O___O_O_ jtwc_sh SH211984 -14.5000 88.3000 60 0 -14.3000 87.5000 40 80 962 5.00000 -14.3000 87.5000 4 86 -14.5000 88.3000 TC 60 5 73
1984035S09101 1984 10 SI MM ANNETTE:JAMINY 1984-02-10 03:00:00 TS -14.5663 87.9771 main 1877 1856 P_____P___P_P_ SH211984 -14.4700 88.5425 60 0 -14.4078 87.9921 40 80 961 -14.1959 87.8424 4 86 -14.4700 88.5425 TC 60 6 88
1984035S09101 1984 10 SI MM ANNETTE:JAMINY 1984-02-10 06:00:00 TS -14.5677 88.2926 80 960 bom main 1856 1827 O_____O___P_O_ jtwc_sh SH211984 -14.5000 88.8000 60 0 -14.5000 88.5000 40 80 960 5.00000 -14.1384 88.2629 4 86 -14.5000 88.8000 TC 60 6 86
1984035S09101 1984 10 SI MM ANNETTE:JAMINY 1984-02-10 09:00:00 TS -14.5190 88.6014 main 1827 1806 P_____P___P_P_ SH211984 -14.5425 89.0500 60 0 -14.3423 88.8303 40 80 960 -14.1365 88.7018 4 86 -14.5425 89.0500 TC 60 6 83
1984035S09101 1984 10 SI MM ANNETTE:JAMINY 1984-02-10 12:00:00 TS -14.4896 88.9092 80 960 bom main 1806 1786 O_____O___O_O_ jtwc_sh SH211984 -14.6000 89.3000 60 0 -14.2000 89.1000 40 80 960 5.00000 -14.2000 89.1000 4 86 -14.6000 89.3000 TC 60 6 90
1984035S09101 1984 10 SI MM ANNETTE:JAMINY 1984-02-10 15:00:00 TS -14.5231 89.2197 main 1786 1776 P_____P___P_P_ SH211984 -14.6500 89.5500 57 0 -14.2900 89.4223 40 80 960 -14.3351 89.4074 4 86 -14.6500 89.5500 TC 57 6 101
1984035S09101 1984 10 SI MM ANNETTE:JAMINY 1984-02-10 18:00:00 TS -14.6065 89.5124 80 960 bom main 1776 1766 O_____O___P_O_ jtwc_sh SH211984 -14.7000 89.8000 55 0 -14.5000 89.7000 40 80 960 5.00000 -14.5323 89.6619 4 86 -14.7000 89.8000 TC 55 6 108
1984035S09101 1984 10 SI MM ANNETTE:JAMINY 1984-02-10 21:00:00 TS -14.7037 89.8003 main 1766 1760 P_____P___P_P_ SH211984 -14.7126 90.1025 55 0 -14.7424 89.8725 40 80 960 -14.7633 89.8606 4 86 -14.7126 90.1025 TC 55 6 116
1984035S09101 1984 10 SI WA ANNETTE:JAMINY 1984-02-11 00:00:00 TS -14.8501 90.0228 80 960 bom main 1772 1766 O_____O___O_O_ jtwc_sh SH211984 -14.8000 90.3000 55 0 -15.0000 90.0000 40 80 960 5.00000 -15.0000 90.0000 4 86 -14.8000 90.3000 TC 55 5 136
1984035S09101 1984 10 SI WA ANNETTE:JAMINY 1984-02-11 03:00:00 TS -15.0680 90.1626 main 1779 1779 P_____P___P_P_ SH211984 -15.0624 90.2899 55 0 -15.2075 90.1874 40 80 960 -15.2198 90.1637 4 84 -15.0624 90.2899 TC 55 5 164
1984035S09101 1984 10 SI WA ANNETTE:JAMINY 1984-02-11 06:00:00 TS -15.3273 90.1720 80 960 bom main 1798 1798 O_____O___P_O_ jtwc_sh SH211984 -15.4000 90.1000 55 0 -15.4000 90.3000 40 80 960 5.00000 -15.4367 90.2598 4 83 -15.4000 90.1000 TC 55 6 193
1984035S09101 1984 10 SI WA ANNETTE:JAMINY 1984-02-11 09:00:00 TS -15.6124 90.0339 main 1837 1837 P_____P___P_P_ SH211984 -15.7377 89.7653 57 0 -15.6374 90.2676 40 80 962 -15.6352 90.2511 4 82 -15.7377 89.7653 TC 57 6 214
1984035S09101 1984 10 SI MM ANNETTE:JAMINY 1984-02-11 12:00:00 TS -15.8584 89.7967 80 965 bom main 1877 1877 O_____O___O_O_ jtwc_sh SH211984 -16.0000 89.4000 60 0 -15.8000 90.1000 40 80 965 5.00000 -15.8000 90.1000 4 81 -16.0000 89.4000 TC 60 6 232
1984035S09101 1984 10 SI MM ANNETTE:JAMINY 1984-02-11 15:00:00 TS -15.9891 89.5390 main 1904 1904 P_____P___P_P_ SH211984 -16.0949 89.1773 62 0 -15.7497 89.8821 40 80 965 -15.9323 89.7286 4 81 -16.0949 89.1773 TC 62 6 249
1984035S09101 1984 10 SI MM ANNETTE:JAMINY 1984-02-11 18:00:00 TS -16.0653 89.2251 80 965 bom main 1931 1931 O_____O___P_O_ jtwc_sh SH211984 -16.1000 89.0000 65 1 -15.7000 89.5000 40 80 965 5.00000 -16.0267 89.2256 4 81 -16.1000 89.0000 TC 65 7 256
1984035S09101 1984 10 SI MM ANNETTE:JAMINY 1984-02-11 21:00:00 TS -16.1624 88.8323 main 1965 1965 P_____P___P_P_ SH211984 -16.1150 88.8000 65 1 -15.8932 88.8281 40 80 965 -16.0824 88.6847 4 81 -16.1150 88.8000 TC 65 8 258
1984035S09101 1984 10 SI MM ANNETTE:JAMINY 1984-02-12 00:00:00 TS -16.2296 88.4475 80 965 bom main 1990 1990 O_____O___O_O_ jtwc_sh SH211984 -16.1000 88.6000 65 1 -16.1000 88.2000 40 80 965 5.00000 -16.1000 88.2000 4 81 -16.1000 88.6000 TC 65 6 264
1984035S09101 1984 10 SI MM ANNETTE:JAMINY 1984-02-12 03:00:00 TS -16.2300 88.1870 main 2003 2003 P_____P___P_P_ SH211984 -16.0500 88.4075 65 1 -16.1446 87.9973 40 80 965 -16.0649 87.9149 4 81 -16.0500 88.4075 TC 65 5 274
1984035S09101 1984 10 SI MM ANNETTE:JAMINY 1984-02-12 06:00:00 TS -16.1998 87.9594 80 965 bom main 2016 2016 O_____O___P_O_ jtwc_sh SH211984 -16.0000 88.2000 65 1 -16.1000 87.9000 40 80 965 5.00000 -15.9991 87.6970 4 81 -16.0000 88.2000 TC 65 5 277
1984035S09101 1984 10 SI MM ANNETTE:JAMINY 1984-02-12 09:00:00 TS -16.1693 87.6933 main 2035 2035 P_____P___P_P_ SH211984 -15.9850 87.9500 65 1 -15.9850 87.6223 40 80 965 -15.9338 87.5056 4 81 -15.9850 87.9500 TC 65 5 275
1984035S09101 1984 10 SI MM ANNETTE:JAMINY 1984-02-12 12:00:00 TS -16.1575 87.4219 80 965 bom main 2055 2055 O_____O___O_O_ jtwc_sh SH211984 -16.0000 87.7000 65 1 -15.9000 87.3000 40 80 965 5.00000 -15.9000 87.3000 4 81 -16.0000 87.7000 TC 65 5 267
1984035S09101 1984 10 SI MM ANNETTE:JAMINY 1984-02-12 15:00:00 TS -16.1970 87.1650 main 2069 2069 P_____P___P_P_ SH211984 -16.0350 87.4925 65 1 -15.9775 87.0001 40 80 965 -15.9391 87.0136 4 81 -16.0350 87.4925 TC 65 5 258
1984035S09101 1984 10 SI MM ANNETTE:JAMINY 1984-02-12 18:00:00 TS -16.2625 86.9216 80 965 bom main 2098 2098 O_____O___P_O_ jtwc_sh SH211984 -16.1000 87.3000 65 1 -16.1000 86.7000 40 80 965 5.00000 -16.0126 86.7078 4 81 -16.1000 87.3000 TC 65 5 253
1984035S09101 1984 10 SI MM ANNETTE:JAMINY 1984-02-12 21:00:00 TS -16.3345 86.6823 main 2112 2112 P_____P___P_P_ SH211984 -16.2075 87.0851 65 1 -16.1500 86.3849 40 80 965 -16.1048 86.3980 4 81 -16.2075 87.0851 TC 65 5 252
1984035S09101 1984 10 SI MM ANNETTE:JAMINY 1984-02-13 00:00:00 TS -16.3999 86.4740 80 965 bom main 2134 2134 O_____O___O_O_ jtwc_sh SH211984 -16.3000 86.9000 65 1 -16.2000 86.1000 40 80 965 5.00000 -16.2000 86.1000 4 81 -16.3000 86.9000 TC 65 4 254
1984035S09101 1984 10 SI MM ANNETTE:JAMINY 1984-02-13 03:00:00 TS -16.4357 86.3122 main 2148 2148 P_____P___P_P_ SH211984 -16.3075 86.7850 65 1 -16.2999 85.9000 40 80 965 -16.2669 85.7950 4 81 -16.3075 86.7850 TC 65 3 256
1984035S09101 1984 10 SI MM ANNETTE:JAMINY 1984-02-13 06:00:00 TS -16.4734 86.1686 80 965 bom main 2164 2164 O____OO___P_O_ jtwc_sh SH211984 -16.3000 86.7000 65 1 -16.6000 86.3000 99 36 9.90000 -16.4000 85.7000 40 80 965 5.00000 -16.3351 85.5100 4 81 -16.3000 86.7000 TC 65 3 254
1984035S09101 1984 10 SI MM ANNETTE:JAMINY 1984-02-13 09:00:00 TS -16.5240 85.9819 main 2178 2178 P____PP___P_P_ SH211984 -16.3275 86.6000 62 0 -16.6975 86.0100 99 36 -16.4576 85.3925 40 80 965 -16.4107 85.2701 4 81 -16.3275 86.6000 TC 62 4 251
1984035S09101 1984 10 SI MM ANNETTE:JAMINY 1984-02-13 12:00:00 TS -16.5961 85.7935 80 965 bom main 2200 2200 O____OO___O_O_ jtwc_sh SH211984 -16.4000 86.5000 60 0 -16.8000 85.7000 99 36 9.90000 -16.5000 85.1000 40 80 965 5.00000 -16.5000 85.1000 4 81 -16.4000 86.5000 TC 60 4 244
1984035S09101 1984 10 SI MM ANNETTE:JAMINY 1984-02-13 15:00:00 TS -16.6946 85.6243 main 2223 2223 P____PP___P_P_ SH211984 -16.5350 86.4150 60 0 -16.9076 85.3700 99 36 -16.5274 84.8825 40 80 965 -16.6064 85.0401 4 81 -16.5350 86.4150 TC 60 4 234
1984035S09101 1984 10 SI MM ANNETTE:JAMINY 1984-02-13 18:00:00 TS -16.8046 85.4912 80 965 bom main 2238 2238 O____OO___P_O_ jtwc_sh SH211984 -16.7000 86.3000 60 0 -17.0000 85.1000 99 36 9.90000 -16.6000 84.8000 40 80 965 5.00000 -16.7273 85.0472 4 81 -16.7000 86.3000 TC 60 3 223
1984035S09101 1984 10 SI MM ANNETTE:JAMINY 1984-02-13 21:00:00 TS -16.9193 85.4051 main 2254 2254 P____PP___P_P_ SH211984 -16.8425 86.1299 57 0 -17.0424 84.9924 99 36 -16.7925 84.9198 40 80 965 -16.8596 85.0807 4 81 -16.8425 86.1299 TC 57 3 216
1984035S09101 1984 10 SI MM ANNETTE:JAMINY 1984-02-14 00:00:00 TS -17.0483 85.3083 80 965 bom main 2269 2269 O____OO___O_O_ jtwc_sh SH211984 -17.0000 85.9000 55 0 -17.1000 84.9000 99 36 9.90000 -17.0000 85.1000 40 80 965 5.00000 -17.0000 85.1000 4 81 -17.0000 85.9000 TC 55 4 222
1984035S09101 1984 10 SI MM ANNETTE:JAMINY 1984-02-14 03:00:00 TS -17.1882 85.1537 main 2293 2293 P____PP___P_P_ SH211984 -17.1925 85.6150 55 0 -17.2201 84.6650 99 36 -17.1000 85.2025 40 80 965 -17.1506 85.1032 4 81 -17.1925 85.6150 TC 55 4 228
1984035S09101 1984 10 SI MM ANNETTE:JAMINY 1984-02-14 06:00:00 TS -17.3511 84.9629 80 965 bom main 2324 2324 O____OO___P_O_ jtwc_sh SH211984 -17.4000 85.3000 55 0 -17.4000 84.4000 99 36 9.90000 -17.2000 85.2000 40 80 965 5.00000 -17.3069 85.0772 4 81 -17.4000 85.3000 TC 55 5 226
1984035S09101 1984 10 SI MM ANNETTE:JAMINY 1984-02-14 09:00:00 TS -17.5543 84.7568 main 2355 2355 P____PP___P_P_ SH211984 -17.6075 85.0000 55 0 -17.6575 84.1776 99 36 -17.3998 85.0825 40 80 965 -17.4598 84.9876 4 81 -17.6075 85.0000 TC 55 6 227
1984035S09101 1984 10 SI MM ANNETTE:JAMINY 1984-02-14 12:00:00 TS -17.7546 84.5154 80 965 bom main 2393 2393 O____OO___O_O_ jtwc_sh SH211984 -17.8000 84.7000 55 0 -17.9000 84.0000 99 36 9.90000 -17.6000 84.8000 40 80 965 5.00000 -17.6000 84.8000 4 81 -17.8000 84.7000 TC 55 6 235
1984035S09101 1984 10 SI MM ANNETTE:JAMINY 1984-02-14 15:00:00 TS -17.8974 84.2333 main 2422 2422 P____PP___P_P_ SH211984 -17.9574 84.4074 55 0 -17.9999 83.9073 99 36 -17.7153 84.3225 40 80 965 -17.6825 84.4590 4 81 -17.9574 84.4074 TC 55 6 244
1984035S09101 1984 10 SI MM ANNETTE:JAMINY 1984-02-14 18:00:00 TS -18.0260 83.9207 80 965 bom main 2452 2452 O____OO___P_O_ jtwc_sh SH211984 -18.1000 84.1000 55 0 -18.1000 83.8000 99 36 9.90000 -17.8000 83.8000 40 80 965 5.00000 -17.7560 84.0244 4 81 -18.1000 84.1000 TC 55 7 246
1984035S09101 1984 10 SI MM ANNETTE:JAMINY 1984-02-14 21:00:00 TS -18.1631 83.5919 main 2490 2490 P____PP___P_P_ SH211984 -18.2349 83.7723 57 0 -18.3351 83.5577 99 36 -17.8549 83.4048 40 80 965 -17.8513 83.5526 4 81 -18.2349 83.7723 TC 57 7 244
1984035S09101 1984 10 SI MM ANNETTE:JAMINY 1984-02-15 00:00:00 TS -18.3358 83.2641 80 965 bom main 2521 2521 O____OO___O_O_ jtwc_sh SH211984 -18.4000 83.4000 60 0 -18.6000 83.3000 99 36 9.90000 -18.0000 83.1000 40 80 965 5.00000 -18.0000 83.1000 4 81 -18.4000 83.4000 TC 60 7 234
1984035S09101 1984 10 SI MM ANNETTE:JAMINY 1984-02-15 03:00:00 TS -18.5876 82.9695 main 2567 2567 P____PP___P_P_ SH211984 -18.6425 82.9651 62 0 -18.8225 83.1274 99 36 -18.3847 82.9149 40 80 965 -18.2785 82.7589 4 81 -18.6425 82.9651 TC 62 8 227
1984035S09101 1984 10 SI MM ANNETTE:JAMINY 1984-02-15 06:00:00 TS -18.8511 82.6739 80 965 bom main 2610 2576 O____OO___P_O_ jtwc_sh SH211984 -18.9000 82.5000 65 1 -19.0000 83.0000 99 36 9.90000 -18.8000 82.7000 40 80 965 5.00000 -18.6067 82.4432 4 81 -18.9000 82.5000 TC 65 8 231
1984035S09101 1984 10 SI MM ANNETTE:JAMINY 1984-02-15 09:00:00 TS -19.0689 82.3498 main 2565 2543 P____PP___P_P_ SH211984 -19.1226 82.0051 67 1 -19.1074 82.9224 99 36 -19.0451 82.2875 40 80 965 -18.9316 82.1308 4 81 -19.1226 82.0051 TC 67 7 237
1984035S09101 1984 10 SI MM ANNETTE:JAMINY 1984-02-15 12:00:00 TS -19.2454 82.0346 80 965 bom main 2533 2509 O____OO___O_O_ jtwc_sh SH211984 -19.3000 81.6000 70 1 -19.2000 82.8000 99 36 9.90000 -19.2000 81.8000 40 80 965 5.00000 -19.2000 81.8000 4 81 -19.3000 81.6000 TC 70 6 241
1984035S09101 1984 10 SI MM ANNETTE:JAMINY 1984-02-15 15:00:00 TS -19.3825 81.7534 main 2509 2477 P____PP___P_P_ SH211984 -19.4223 81.4048 72 1 -19.3427 82.5076 99 36 -19.3225 81.3349 40 80 965 -19.3358 81.4046 4 81 -19.4223 81.4048 TC 72 6 245
1984035S09101 1984 10 SI MM ANNETTE:JAMINY 1984-02-15 18:00:00 TS -19.4850 81.4986 80 965 bom main 2477 2455 O____OO___P_O_ jtwc_sh SH211984 -19.5000 81.3000 75 1 -19.5000 82.2000 99 36 9.90000 -19.4000 80.9000 40 80 965 5.00000 -19.4103 80.9916 4 81 -19.5000 81.3000 TC 75 5 246
1984035S09101 1984 10 SI MM ANNETTE:JAMINY 1984-02-15 21:00:00 TS -19.5724 81.3000 main 2455 2434 P____PP___P_P_ SH211984 -19.5649 81.1650 80 1 -19.6574 82.0424 99 36 -19.4670 80.5057 40 80 965 -19.4546 80.5828 4 81 -19.5649 81.1650 TC 80 4 247
1984035S09101 1984 10 SI MM ANNETTE:JAMINY 1984-02-16 00:00:00 TS -19.6403 81.1190 80 965 bom main 2434 2412 O____OO___O_O_ jtwc_sh SH211984 -19.6000 81.0000 85 2 -19.8000 81.9000 99 36 9.90000 -19.5000 80.2000 40 80 965 5.00000 -19.5000 80.2000 4 81 -19.6000 81.0000 TC 85 4 250
1984035S09101 1984 10 SI MM ANNETTE:JAMINY 1984-02-16 03:00:00 TS -19.6968 80.9327 80 965 bom main 2412 2390 P____PO___P_P_ SH211984 -19.6000 80.7724 87 2 -19.8990 81.7771 99 36 -19.5000 80.0000 40 80 965 5.00000 -19.6006 79.8591 4 -19.6000 80.7724 TC 87 4 254
1984035S09101 1984 10 SI MM ANNETTE:JAMINY 1984-02-16 06:00:00 TS -19.7614 80.6695 main 2390 2337 O____O____P_O_ jtwc_sh SH211984 -19.6000 80.5000 90 2 -20.0000 81.4000 99 36 9.90000 -19.7072 79.5476 4 -19.6000 80.5000 TC 90 7 257
1984035S09101 1984 10 SI MM ANNETTE:JAMINY 1984-02-16 09:00:00 TS -19.8598 80.2006 main 2337 2285 P____P____P_P_ SH211984 -19.6500 80.2001 92 2 -20.1749 80.3933 99 64 -19.8101 79.2623 4 -19.6500 80.2001 TC 92 9 258
1984035S09101 1984 10 SI MM ANNETTE:JAMINY 1984-02-16 12:00:00 TS -19.9463 79.7247 92 927 reunion main 2285 2253 O____O____O_O_ jtwc_sh SH211984 -19.7000 79.9000 95 2 -20.3000 79.4000 4 92 927 6.00000 6.00000 -19.9000 79.0000 4 -19.7000 79.9000 TC 95 8 261
1984035S09101 1984 10 SI MM ANNETTE:JAMINY 1984-02-16 15:00:00 TS -19.9728 79.4048 main 2253 2232 P____P____P_P_ SH211984 -19.6999 79.6499 97 3 -20.2715 79.0872 4 92 927 -19.9601 78.7491 4 -19.6999 79.6499 TC 97 5 266
1984035S09101 1984 10 SI MM ANNETTE:JAMINY 1984-02-16 18:00:00 TS -19.9815 79.1439 92 927 reunion main 2221 2201 O____O____P_O_ jtwc_sh SH211984 -19.7000 79.4000 100 3 -20.2000 79.0000 4 92 927 6.00000 6.00000 -20.0072 78.5197 4 -19.7000 79.4000 TC 100 5 266
1984035S09101 1984 10 SI MM ANNETTE:JAMINY 1984-02-16 21:00:00 TS -20.0076 78.8717 main 2201 2169 P____P____P_P_ SH211984 -19.7425 79.1000 100 3 -20.1850 78.7500 4 92 927 -20.0508 78.3054 4 -19.7425 79.1000 TC 100 5 263
1984035S09101 1984 10 SI MM ANNETTE:JAMINY 1984-02-17 00:00:00 TS -20.0400 78.6105 92 927 reunion main 2169 2148 O____O____O_O_ jtwc_sh SH211984 -19.8000 78.8000 100 3 -20.2000 78.5000 4 92 927 6.00000 6.00000 -20.1000 78.1000 4 -19.8000 78.8000 TC 100 5 262
1984035S09101 1984 10 SI MM ANNETTE:JAMINY 1984-02-17 03:00:00 TS -20.0758 78.3803 main 2148 2116 P____P____P_P_ SH211984 -19.8424 78.5499 100 3 -20.2647 78.3376 4 92 927 -20.1718 77.8888 4 -19.8424 78.5499 TC 100 5 262
1984035S09101 1984 10 SI MM ANNETTE:JAMINY 1984-02-17 06:00:00 TS -20.1052 78.1126 92 927 reunion main 2116 2085 O____O____P_O_ jtwc_sh SH211984 -19.9000 78.3000 100 3 -20.3000 78.1000 4 92 927 6.00000 6.00000 -20.2499 77.6850 4 -19.9000 78.3000 TC 100 6 264
1984035S09101 1984 10 SI MM ANNETTE:JAMINY 1984-02-17 09:00:00 TS -20.1354 77.7698 main 2085 2043 P____P____P_P_ SH211984 -19.9999 78.0150 100 3 -20.2152 77.6373 4 92 927 -20.3281 77.4888 4 -19.9999 78.0150 TC 100 7 265
1984035S09101 1984 10 SI MM ANNETTE:JAMINY 1984-02-17 12:00:00 TS -20.1677 77.4195 92 927 reunion main 2043 2022 O____O____O_O_ jtwc_sh SH211984 -20.1000 77.7000 100 3 -20.1000 77.1000 4 92 927 6.00000 6.00000 -20.4000 77.3000 4 -20.1000 77.7000 TC 100 6 263
1984035S09101 1984 10 SI MM ANNETTE:JAMINY 1984-02-17 15:00:00 TS -20.2054 77.1443 main 2012 1980 P____P____P_P_ SH211984 -20.1574 77.3649 100 3 -20.0421 76.6726 4 87 934 -20.4646 77.1746 4 -20.1574 77.3649 TC 100 6 264
1984035S09101 1984 10 SI MM ANNETTE:JAMINY 1984-02-17 18:00:00 TS -20.2303 76.8118 82 941 reunion main 1980 1939 O____O____P_O_ jtwc_sh SH211984 -20.2000 77.0000 100 3 -20.0000 76.2000 4 82 941 5.50000 5.50000 -20.5213 77.0474 4 -20.2000 77.0000 TC 100 7 266
1984035S09101 1984 10 SI MM ANNETTE:JAMINY 1984-02-17 21:00:00 TS -20.2505 76.4259 main 1938 1896 P____P____P_P_ SH211984 -20.2499 76.6150 100 3 -19.9348 75.6023 4 77 947 -20.5674 76.8715 4 -20.2499 76.6150 TC 100 8 267
1984035S09101 1984 10 SI MM ANNETTE:JAMINY 1984-02-18 00:00:00 TS -20.2750 75.9750 72 954 reunion main 1896 1844 O____O____O_O_ jtwc_sh SH211984 -20.3000 76.2000 100 3 -19.9000 74.9000 4 72 954 5.00000 5.00000 -20.6000 76.6000 4 -20.3000 76.2000 TC 100 9 266
1984035S09101 1984 10 SI MM ANNETTE:JAMINY 1984-02-18 03:00:00 TS -20.3173 75.4271 main 1834 1781 P____P____P_P_ SH211984 -20.3575 75.7500 100 3 -19.9433 74.0328 4 72 954 -20.6109 76.1754 4 -20.3575 75.7500 TC 105 10 266
1984035S09101 1984 10 SI MM ANNETTE:JAMINY 1984-02-18 06:00:00 TS -20.3521 74.8886 72 954 reunion main 1781 1740 O____O____P_O_ jtwc_sh SH211984 -20.4000 75.3000 100 3 -20.0000 73.3000 4 72 954 5.00000 5.00000 -20.6083 75.6546 4 -20.4000 75.3000 TC 110 941 9 268
1984035S09101 1984 10 SI MM ANNETTE:JAMINY 1984-02-18 09:00:00 TS -20.3520 74.4709 main 1740 1699 P____P____P_P_ SH211984 -20.3999 74.8924 100 3 -20.0068 73.0174 4 72 954 -20.6014 75.0816 4 -20.3999 74.8924 TC 105 7 270
1984035S09101 1984 10 SI MM ANNETTE:JAMINY 1984-02-18 12:00:00 TS -20.3500 74.1000 72 954 reunion main 1699 1656 O____O____O_O_ jtwc_sh SH211984 -20.4000 74.5000 100 3 -20.0000 72.9000 4 72 954 5.00000 5.00000 -20.6000 74.5000 4 -20.4000 74.5000 TC 100 7 269
1984035S09101 1984 10 SI MM ANNETTE:JAMINY 1984-02-18 15:00:00 TS -20.3676 73.6990 main 1656 1615 P____P____P_P_ SH211984 -20.4424 74.1000 100 3 -20.0000 72.6500 4 77 947 -20.5854 73.9461 4 -20.4424 74.1000 TC 100 8 268
1984035S09101 1984 10 SI MM ANNETTE:JAMINY 1984-02-18 18:00:00 TS -20.3724 73.2522 82 941 reunion main 1615 1573 O____O____P_O_ jtwc_sh SH211984 -20.5000 73.7000 100 3 -20.0000 72.4000 4 82 941 5.50000 5.50000 -20.5827 73.3967 4 -20.5000 73.7000 TC 100 8 270
1984035S09101 1984 10 SI MM ANNETTE:JAMINY 1984-02-18 21:00:00 TS -20.3722 72.8516 main 1573 1531 P____P____P_P_ SH211984 -20.5349 73.3073 100 3 -19.9850 72.1850 4 87 934 -20.6136 72.8741 4 -20.5349 73.3073 TC 100 7 267
1984035S09101 1984 10 SI MM ANNETTE:JAMINY 1984-02-19 00:00:00 TS -20.4051 72.4815 92 927 reunion main 1531 1500 O____O____O_O_ jtwc_sh SH211984 -20.6000 72.9000 100 3 -20.0000 72.0000 4 92 927 6.00000 6.00000 -20.7000 72.4000 4 -20.6000 72.9000 TC 100 7 260
1984035S09101 1984 10 SI MM ANNETTE:JAMINY 1984-02-19 03:00:00 TS -20.4922 72.1378 main 1489 1458 P____P____P_P_ SH211984 -20.7199 72.4574 100 3 -20.0698 71.8798 4 92 927 -20.8665 72.0120 4 -20.7199 72.4574 TC 100 7 249
1984035S09101 1984 10 SI MM ANNETTE:JAMINY 1984-02-19 06:00:00 TS -20.6577 71.7940 92 927 reunion main 1458 1416 O____O____P_O_ jtwc_sh SH211984 -20.9000 72.0000 100 3 -20.2000 71.7000 4 92 927 6.00000 6.00000 -21.0887 71.6700 4 -20.9000 72.0000 TC 100 8 241
1984035S09101 1984 10 SI MM ANNETTE:JAMINY 1984-02-19 09:00:00 TS -20.8761 71.3991 main 1416 1375 P____P____P_P_ SH211984 -21.1274 71.5425 97 3 -20.3851 71.3451 4 92 927 -21.3416 71.3430 4 -21.1274 71.5425 TC 97 9 238
1984035S09101 1984 10 SI MM ANNETTE:JAMINY 1984-02-19 12:00:00 TS -21.1322 70.9802 92 927 reunion main 1375 1334 O____O____O_O_ jtwc_sh SH211984 -21.4000 71.1000 95 2 -20.6000 70.9000 4 92 927 6.00000 6.00000 -21.6000 71.0000 4 -21.4000 71.1000 TC 95 9 237
1984035S09101 1984 10 SI MM ANNETTE:JAMINY 1984-02-19 15:00:00 TS -21.3905 70.5488 main 1324 1295 P____P____P_P_ SH211984 -21.6924 70.6849 95 2 -20.7626 70.4347 4 87 934 -21.8377 70.5604 4 -21.6924 70.6849 TC 95 10 235
1984035S09101 1984 10 SI MM ANNETTE:JAMINY 1984-02-19 18:00:00 TS -21.6746 70.1411 82 941 reunion main 1285 1257 O____O____P_O_ jtwc_sh SH211984 -22.0000 70.3000 95 2 -21.0000 70.0000 4 82 941 5.50000 5.50000 -22.0732 70.1056 4 -22.0000 70.3000 TC 95 9 230
1984035S09101 1984 10 SI MM ANNETTE:JAMINY 1984-02-19 21:00:00 TS -21.9834 69.7820 main 1258 1230 P____P____P_P_ SH211984 -22.3000 69.9274 92 2 -21.4124 69.6626 4 82 941 -22.2971 69.6730 4 -22.3000 69.9274 TC 92 9 224
1984035S09101 1984 10 SI MM ANNETTE:JAMINY 1984-02-20 00:00:00 TS -22.3079 69.4778 82 941 reunion main 1231 1206 O____O____O_O_ jtwc_sh SH211984 -22.6000 69.6000 90 2 -21.9000 69.4000 4 82 941 5.50000 5.50000 -22.5000 69.3000 4 -22.6000 69.6000 TC 90 8 219
1984035S09101 1984 10 SI MM ANNETTE:JAMINY 1984-02-20 03:00:00 TS -22.6177 69.2279 main 1206 1193 P____P____P_P_ SH211984 -22.9074 69.3274 90 2 -22.3500 69.1699 4 82 941 -22.6222 69.0261 4 -22.9074 69.3274 TC 90 8 214
1984035S09101 1984 10 SI MM ANNETTE:JAMINY 1984-02-20 06:00:00 TS -22.9264 69.0232 82 941 reunion main 1193 1188 O____O____P_O_ jtwc_sh SH211984 -23.2000 69.1000 90 2 -22.8000 69.0000 4 82 941 5.50000 5.50000 -22.7318 68.8160 4 -23.2000 69.1000 TC 90 7 209
1984035S09101 1984 10 SI MM ANNETTE:JAMINY 1984-02-20 09:00:00 TS -23.2445 68.8536 main 1190 1179 P____P____P_P_ SH211984 -23.4574 68.8923 87 2 -23.2649 68.9146 4 72 953 -22.8755 68.6481 4 -23.4574 68.8923 TC 87 7 205
1984035S09101 1984 10 SI MM ANNETTE:JAMINY 1984-02-20 12:00:00 MX -23.5729 68.6888 62 966 reunion main 1182 1169 O____O____O_O_ jtwc_sh SH211984 -23.7000 68.7000 85 2 -23.7000 68.8000 5 62 966 4.50000 4.50000 -23.1000 68.5000 4 -23.7000 68.7000 TC 85 8 206
1984035S09101 1984 10 SI MM ANNETTE:JAMINY 1984-02-20 15:00:00 MX -23.9229 68.4899 main 1172 1164 P____P____P_P_ SH211984 -23.9500 68.4999 82 1 -24.0724 68.5524 5 57 971 -23.4879 68.3518 4 -23.9500 68.4999 TC 82 8 209
1984035S09101 1984 10 SI MM ANNETTE:JAMINY 1984-02-20 18:00:00 MX -24.2709 68.2630 52 976 reunion main 1168 1147 O____O____P_O_ jtwc_sh SH211984 -24.2000 68.3000 80 1 -24.4000 68.2000 5 52 976 4.00000 4.00000 -23.9547 68.2148 4 -24.2000 68.3000 TC 80 8 215
1984035S09101 1984 10 SI MM ANNETTE:JAMINY 1984-02-20 21:00:00 MX -24.5724 67.9874 main 1151 1132 P____P____P_P_ SH211984 -24.4049 68.1145 77 1 -24.6853 67.7424 5 48 980 -24.4441 68.0704 4 -24.4049 68.1145 TC 77 8 220
1984035S09101 1984 10 SI MM ANNETTE:JAMINY 1984-02-21 00:00:00 MX -24.9003 67.6908 44 984 reunion main 1136 1123 O____O____O_O_ jtwc_sh SH211984 -24.7000 67.9000 75 1 -25.0000 67.3000 5 44 984 3.50000 3.50000 -24.9000 67.9000 2 -24.7000 67.9000 TC 75 9 216
1984035S09101 1984 10 SI MM ANNETTE:JAMINY 1984-02-21 03:00:00 MX -25.3026 67.3918 main 1128 1122 P____P____P_P_ SH211984 -25.1976 67.6077 72 1 -25.4198 67.0123 5 44 984 -25.2189 67.6701 2 -25.1976 67.6077 TC 72 10 211
1984035S09101 1984 10 SI MM ANNETTE:JAMINY 1984-02-21 06:00:00 MX -25.7600 67.1228 44 984 reunion main 1128 1124 O____O____P_O_ jtwc_sh SH211984 -25.8000 67.3000 70 1 -25.9000 66.8000 5 44 984 3.50000 3.50000 -25.5002 67.4143 2 -25.8000 67.3000 TC 70 11 206
1984035S09101 1984 10 SI MM ANNETTE:JAMINY 1984-02-21 09:00:00 MX -26.2509 66.8852 main 1139 1137 P____P____P_P_ SH211984 -26.4075 66.9905 67 1 -26.4300 66.5181 5 44 984 -25.7814 67.1513 2 -26.4075 66.9905 TC 67 10 198
1984035S09101 1984 10 SI MM ANNETTE:JAMINY 1984-02-21 12:00:00 MX -26.7409 66.7580 44 984 reunion main 1156 1154 O____O____O_O_ jtwc_sh SH211984 -27.0000 66.8000 65 1 -26.9000 66.4000 5 44 984 3.50000 3.50000 -26.1000 66.9000 2 -27.0000 66.8000 TC 65 9 187
1984035S09101 1984 10 SI MM ANNETTE:JAMINY 1984-02-21 15:00:00 MX -27.1576 66.7684 main 1189 1189 P____P____P_P_ SH211984 -27.5073 66.8099 62 0 -27.1649 66.5951 5 40 987 -26.4049 66.5419 2 -27.5073 66.8099 TC 62 8 171
1984035S09101 1984 10 SI MM ANNETTE:JAMINY 1984-02-21 18:00:00 MX -27.5733 66.9039 36 991 reunion main 1224 1224 O____O____P_O_ jtwc_sh SH211984 -28.0000 67.0000 60 0 -27.4000 67.0000 5 36 991 3.00000 3.00000 -26.7663 66.2194 2 -28.0000 67.0000 TC 60 9 159
1984035S09101 1984 10 SI MM ANNETTE:JAMINY 1984-02-21 21:00:00 MX -28.0365 67.1498 main 1267 1267 P____P____P_P_ SH211984 -28.5502 67.3196 57 0 -27.7331 67.5442 5 32 994 -27.2444 66.0367 2 -28.5502 67.3196 TC 57 11 156
1984035S09101 1984 10 SI MM ANNETTE:JAMINY 1984-02-22 00:00:00 MX -28.5850 67.4031 28 997 reunion main 1333 1333 O____O____O_O_ jtwc_sh SH211984 -29.1000 67.7000 55 0 -28.2000 68.0000 5 28 997 2.50000 2.50000 -27.9000 66.1000 2 -29.1000 67.7000 TC 55 13 161
1984035S09101 1984 10 SI MM ANNETTE:JAMINY 1984-02-22 03:00:00 MX -29.2218 67.6262 main 1392 1392 P____P____P_P_ SH211984 -29.5772 67.9862 52 0 -28.8471 68.1113 5 26 998 -28.8328 66.5154 2 -29.5772 67.9862 TC 52 15 162
1984035S09101 1984 10 SI MM ANNETTE:JAMINY 1984-02-22 06:00:00 MX -29.9733 67.9344 24 1000 reunion main 1474 1474 O____O____P_O_ jtwc_sh SH211984 -30.1000 68.3000 50 0 -29.6000 68.0000 5 24 1000 2.00000 2.00000 -29.9317 67.1954 2 -30.1000 68.3000 TC 50 18 156
1984035S09101 1984 10 SI MM ANNETTE:JAMINY 1984-02-22 09:00:00 TS -30.8559 68.4595 main 1585 1585 P_________P_P_ SH211984 -30.7392 68.6622 47 0 5 -31.0893 68.0542 2 -30.7392 68.6622 TC 47 20 150
1984035S09101 1984 10 SI MM ANNETTE:JAMINY 1984-02-22 12:00:00 TS -31.7333 69.1333 24 1000 reunion main 1688 1688 O_________O_O_ jtwc_sh SH211984 -31.5000 69.2000 45 0 -32.2000 69.0000 2 -31.5000 69.2000 TC 45 22 144
1984035S09101 1984 10 SI MM ANNETTE:JAMINY 1984-02-22 15:00:00 TS -32.6315 69.9959 main 1804 1709 P_________P_P_ SH211984 -32.3553 70.0179 42 0 -33.1840 69.9519 2 -32.3553 70.0179 TC 42 24 139
1984035S09101 1984 10 SI MM ANNETTE:JAMINY 1984-02-22 18:00:00 TS -33.5059 70.9722 36 reunion main 1710 1619 O_________P_O_ jtwc_sh SH211984 -33.3000 71.0000 40 0 -34.0549 70.8979 2 -33.3000 71.0000 TC 40 24 137
1984035S09101 1984 10 SI MM ANNETTE:JAMINY 1984-02-22 21:00:00 TS -34.4041 71.9925 main 1620 1534 P_________P_P_ SH211984 -34.2930 72.0295 37 0 -34.8486 71.8447 2 -34.2930 72.0295 TC 37 25 138
1984035S09101 1984 10 SI MM ANNETTE:JAMINY 1984-02-23 00:00:00 TS -35.3333 72.9778 36 reunion main 1536 1452 O_________O_O_ jtwc_sh SH211984 -35.3000 73.0000 35 0 -35.6000 72.8000 2 -35.3000 73.0000 TC 35 24 142
1984035S09101 1984 10 SI MM ANNETTE:JAMINY 1984-02-23 03:00:00 TS -36.2491 73.7775 main 1454 1368 P___________P_ SH211984 -36.2491 73.7775 32 -1 2 -36.2491 73.7775 TC 32 22 148
1984035S09101 1984 10 SI MM ANNETTE:JAMINY 1984-02-23 06:00:00 TS -37.2000 74.4000 36 reunion main 1359 1272 O___________O_ jtwc_sh SH211984 -37.2000 74.4000 30 -1 2 -37.2000 74.4000 TC 30 21 155
1984035S09101 1984 10 SI MM ANNETTE:JAMINY 1984-02-23 09:00:00 TS -38.1880 74.9221 main 1261 1174 P___________P_ SH211984 -38.1880 74.9221 27 -1 2 -38.1880 74.9221 TC 27 22 159
1984035S09101 1984 10 SI MM ANNETTE:JAMINY 1984-02-23 12:00:00 TS -39.2000 75.4000 36 reunion main 1166 O___________O_ jtwc_sh SH211984 -39.2000 75.4000 25 -1 -39.2000 75.4000 TC 25 22 160

About IBTrACS Database

This database is a web-friendly format of International Best Track Archive for Climate Stewardship (IBTrACS), a global best track data archive curated by NOAA dating back to 1842.

Updated: 2021-12-03